Flight Track Log - Related Links

Times and Time Zones

All times are in EDT time to prevent confusion due to time zone crossing. See the N23139 flight status page for this flight to view local times or setup timezone preferences in your user account.


Time Position Orientation Groundspeed Altitude Reporting Facility
EDT Latitude Longitude Course Direction KTS MPH feet Rate Location/Type
Thu 02:56:13 PM 40.6500 -74.2000 270° West 181 208 1,800  Level New York TRACON
Thu 02:57:07 PM 40.6333 -74.2500 246° West 255 293 3,200 2,211 Climbing New York TRACON
Thu 02:58:07 PM 40.6500 -74.3500 282° West 279 321 6,000 2,850 Climbing New York TRACON
Thu 02:59:00 PM 40.7515 -74.7190 276° West  Level FlightAware Approximate
Thu 02:59:07 PM 40.6667 -74.4500 282° West 287 330 8,900  Level New York TRACON
Thu 03:00:00 PM 40.7625 -74.8621 276° West  Level FlightAware Approximate
Thu 03:01:00 PM 40.7833 -75.0010 270° West  Level FlightAware Approximate
Thu 03:01:10 PM 40.7772 -74.5856 317° Northwest 271 312 12,100  Level New York Center
Thu 03:02:12 PM 40.8483 -74.6336 333° Northwest 276 318 14,200 1,785 Climbing New York Center
Thu 03:03:11 PM 40.8464 -74.7542 269° West 285 328 15,700 1,261 Climbing New York Center
Thu 03:04:11 PM 40.8336 -74.8878 263° West 327 376 16,700 1,050 Climbing New York Center
Thu 03:05:11 PM 40.8186 -75.0158 261° West 386 444 17,800 1,576 Climbing New York Center
Thu 03:06:09 PM 40.7983 -75.1706 260° West 400 460 19,800 2,067 Climbing New York Center
Thu 03:07:10 PM 40.7786 -75.3064 259° West 393 452 21,900 2,016 Climbing New York Center
Thu 03:08:11 PM 40.7483 -75.4414 254° West 386 444 23,900 1,815 Climbing New York Center
Thu 03:09:09 PM 40.6997 -75.5639 242° Southwest 380 437 25,500 1,563 Climbing New York Center
Thu 03:10:10 PM 40.6528 -75.6894 244° Southwest 385 443 27,000 1,488 Climbing New York Center
Thu 03:11:10 PM 40.6058 -75.8144 244° Southwest 391 450 28,500 1,587 Climbing New York Center
Thu 03:12:11 PM 40.5567 -75.9419 243° Southwest 391 450 30,200 1,537 Climbing New York Center
Thu 03:13:11 PM 40.5097 -76.0639 243° Southwest 391 450 31,600 1,424 Climbing New York Center
Thu 03:14:09 PM 40.4625 -76.1831 243° Southwest 385 443 33,000 1,475 Climbing New York Center
Thu 03:15:09 PM 40.4233 -76.3083 248° West 374 430 34,500 1,190 Climbing New York Center
Thu 03:16:10 PM 40.3933 -76.4147 250° West 361 415 35,400 744 Climbing New York Center
Thu 03:17:10 PM 40.3597 -76.5483 252° West 361 415 36,000 298 Climbing New York Center
Thu 03:18:11 PM 40.3219 -76.6814 250° West 369 425 36,000  Level New York Center
Thu 03:19:11 PM 40.2861 -76.8144 251° West 385 443 36,000  Level New York Center
Thu 03:20:09 PM 40.2472 -76.9606 251° West 410 472 36,000  Level New York Center
Thu 03:21:10 PM 40.2036 -77.1117 249° West 428 493 36,000  Level New York Center
Thu 03:22:11 PM 40.1622 -77.2600 250° West 443 510 36,000  Level New York Center
Thu 03:24:12 PM 40.1131 -77.5806 259° West 450 518 36,000  Level Cleveland Center
Thu 03:25:12 PM 40.1108 -77.7408 269° West 450 518 36,000  Level Cleveland Center
Thu 03:26:12 PM 40.1086 -77.9011 269° West 445 512 36,000  Level Cleveland Center
Thu 03:27:12 PM 40.1019 -78.0669 267° West 450 518 36,000  Level Cleveland Center
Thu 03:28:12 PM 40.0969 -78.2272 268° West 450 518 36,000  Level Cleveland Center
Thu 03:29:12 PM 40.0961 -78.3875 270° West 450 518 36,000  Level Cleveland Center
Thu 03:30:12 PM 40.0928 -78.5503 269° West 450 518 36,000  Level Cleveland Center
Thu 03:31:12 PM 40.0853 -78.7133 267° West 450 518 36,000  Level Cleveland Center
Thu 03:32:12 PM 40.0836 -78.8708 269° West 450 518 36,000  Level Cleveland Center
Thu 03:33:12 PM 40.0775 -79.0283 267° West 439 505 36,000  Level Cleveland Center
Thu 03:34:12 PM 40.0753 -79.1858 269° West 439 505 36,000  Level Cleveland Center
Thu 03:35:12 PM 40.0728 -79.3242 269° West 439 505 36,000  Level Cleveland Center
Thu 03:36:12 PM 40.0703 -79.4817 269° West 439 505 36,000  Level Cleveland Center
Thu 03:37:12 PM 40.0633 -79.6419 267° West 439 505 36,000  Level Cleveland Center
Thu 03:38:12 PM 40.0583 -79.7992 268° West 439 505 36,000  Level Cleveland Center
Thu 03:39:12 PM 40.0531 -79.9539 267° West 439 505 36,000  Level Cleveland Center
Thu 03:40:12 PM 40.0475 -80.1086 267° West 439 505 36,000  Level Cleveland Center
Thu 03:41:12 PM 40.0397 -80.2658 266° West 439 505 36,000  Level Cleveland Center
Thu 03:42:12 PM 40.0358 -80.4231 268° West 439 505 36,000  Level Cleveland Center
Thu 03:43:51 PM 40.0211 -80.6803 266° West 434 499 36,000  Level Indianapolis Center
Thu 03:44:53 PM 40.0167 -80.8375 268° West 431 496 36,000  Level Indianapolis Center
Thu 03:45:55 PM 40.0136 -81.0236 269° West 435 501 36,000  Level Indianapolis Center
Thu 03:46:57 PM 40.0117 -81.1817 269° West 432 497 36,000  Level Indianapolis Center
Thu 03:47:59 PM 40.0081 -81.3417 268° West 436 502 36,000  Level Indianapolis Center
Thu 03:49:01 PM 40.0058 -81.5011 269° West 435 501 36,000  Level Indianapolis Center
Thu 03:50:03 PM 40.0025 -81.6611 268° West 437 503 36,000  Level Indianapolis Center
Thu 03:51:05 PM 39.9986 -81.8372 268° West 438 504 36,000  Level Indianapolis Center
Thu 03:52:07 PM 39.9953 -81.9967 268° West 438 504 36,000  Level Indianapolis Center
Thu 03:53:10 PM 39.9914 -82.1564 268° West 437 503 36,000  Level Indianapolis Center
Thu 03:54:11 PM 39.9869 -82.3161 268° West 438 504 36,000  Level Indianapolis Center
Thu 03:55:13 PM 39.9828 -82.4767 268° West 439 505 36,000  Level Indianapolis Center
Thu 03:56:15 PM 39.9789 -82.6356 268° West 437 503 36,000  Level Indianapolis Center
Thu 03:57:18 PM 39.9736 -82.7958 268° West 439 505 36,000  Level Indianapolis Center
Thu 03:58:20 PM 39.9678 -82.9831 268° West 440 506 36,000  Level Indianapolis Center
Thu 03:59:22 PM 39.9642 -83.1425 268° West 439 505 36,000  Level Indianapolis Center
Thu 04:00:24 PM 39.9600 -83.3025 268° West 442 509 36,000  Level Indianapolis Center
Thu 04:01:26 PM 39.9553 -83.4664 268° West 442 509 36,000  Level Indianapolis Center
Thu 04:02:28 PM 39.9475 -83.6456 267° West 445 512 36,000  Level Indianapolis Center
Thu 04:03:30 PM 39.9414 -83.8047 267° West 442 509 36,000  Level Indianapolis Center
Thu 04:04:32 PM 39.9353 -83.9650 267° West 443 510 36,000  Level Indianapolis Center
Thu 04:05:34 PM 39.9278 -84.1261 267° West 444 511 36,000  Level Indianapolis Center
Thu 04:06:36 PM 39.9217 -84.2867 267° West 442 509 36,000  Level Indianapolis Center
Thu 04:07:38 PM 39.9139 -84.4478 266° West 442 509 36,000  Level Indianapolis Center
Thu 04:08:40 PM 39.9078 -84.6094 267° West 443 510 36,000  Level Indianapolis Center
Thu 04:09:42 PM 39.8983 -84.7986 266° West 445 512 36,000  Level Indianapolis Center
Thu 04:10:45 PM 39.8906 -84.9600 266° West 444 511 36,000  Level Indianapolis Center
Thu 04:11:46 PM 39.8828 -85.1200 266° West 444 511 36,000  Level Indianapolis Center
Thu 04:12:48 PM 39.8747 -85.2781 266° West 442 509 36,000  Level Indianapolis Center
Thu 04:13:50 PM 39.8667 -85.4364 266° West 441 507 36,000  Level Indianapolis Center
Thu 04:14:52 PM 39.8586 -85.5964 266° West 443 510 36,000  Level Indianapolis Center
Thu 04:15:54 PM 39.8478 -85.7867 266° West 441 507 36,000  Level Indianapolis Center
Thu 04:16:56 PM 39.8394 -85.9456 266° West 444 511 36,000  Level Indianapolis Center
Thu 04:17:59 PM 39.8308 -86.1039 266° West 443 510 36,000  Level Indianapolis Center
Thu 04:19:01 PM 39.8189 -86.2758 265° West 441 507 36,000  Level Indianapolis Center
Thu 04:20:03 PM 39.8167 -86.4464 269° West 449 517 36,000  Level Indianapolis Center
Thu 04:21:05 PM 39.8194 -86.6058 271° West 449 517 36,000  Level Indianapolis Center
Thu 04:22:07 PM 39.8228 -86.7658 272° West 445 512 36,000  Level Indianapolis Center
Thu 04:23:09 PM 39.8253 -86.9267 271° West 447 514 36,000  Level Indianapolis Center
Thu 04:24:11 PM 39.8283 -87.1183 271° West 445 512 36,000  Level Indianapolis Center
Thu 04:25:13 PM 39.8306 -87.2789 271° West 445 512 36,000  Level Indianapolis Center
Thu 04:26:15 PM 39.8325 -87.4397 271° West 446 513 36,000  Level Indianapolis Center
Thu 04:27:17 PM 39.8353 -87.6000 271° West 446 513 36,000  Level Indianapolis Center
Thu 04:28:19 PM 39.8364 -87.7606 271° West 445 512 36,000  Level Indianapolis Center
Thu 04:29:21 PM 39.8375 -87.9189 271° West 443 510 36,000  Level Indianapolis Center
Thu 04:30:24 PM 39.8386 -88.1067 271° West 438 504 36,000  Level Indianapolis Center
Thu 04:31:26 PM 39.8417 -88.2625 272° West 434 499 36,000  Level Indianapolis Center
Thu 04:32:32 PM 39.8422 -88.4228 270° West 436 502 36,000  Level Kansas City Center
Thu 04:33:34 PM 39.8411 -88.5803 270° West 435 501 36,000  Level Kansas City Center
Thu 04:34:36 PM 39.8425 -88.7364 271° West 432 497 36,000  Level Kansas City Center
Thu 04:35:38 PM 39.8422 -88.9222 270° West 430 495 36,000  Level Kansas City Center
Thu 04:36:40 PM 39.8425 -89.0786 270° West 431 496 36,000  Level Kansas City Center
Thu 04:37:42 PM 39.8417 -89.2344 270° West 430 495 36,000  Level Kansas City Center
Thu 04:38:44 PM 39.8408 -89.3894 270° West 429 494 36,000  Level Kansas City Center
Thu 04:39:46 PM 39.8397 -89.5469 270° West 432 497 36,000  Level Kansas City Center
Thu 04:41:00 PM 39.8334 -89.7263 270° West  Level FlightAware Approximate
Thu 04:44:56 PM 39.8461 -90.3678 270° West 435 501 36,000  Level Kansas City Center
Thu 04:45:58 PM 39.8464 -90.5253 260° West 434 499 36,000  Level Kansas City Center
Thu 04:46:00 PM 39.8387 -90.5230 266° West  Level FlightAware Approximate
Thu 04:47:00 PM 39.8478 -90.6811 271° West 432 497 36,000  Level Kansas City Center
Thu 04:48:00 PM 39.8336 -90.7456 270° West  Level FlightAware Approximate
Thu 04:48:02 PM 39.8475 -90.8375 270° West 431 496 36,000  Level Kansas City Center
Thu 04:49:00 PM 39.8338 -90.8912 270° West  Level FlightAware Approximate
Thu 04:49:04 PM 39.8472 -91.0019 270° West 432 497 36,000  Level Kansas City Center
Thu 04:50:00 PM 39.8337 -91.0368 270° West  Level FlightAware Approximate
Thu 04:50:06 PM 39.8486 -91.1558 271° West 430 495 36,000  Level Kansas City Center
Thu 04:51:08 PM 39.8442 -91.3400 268° West 428 493 36,000  Level Kansas City Center
Thu 04:52:10 PM 39.8317 -91.4931 264° West 426 490 36,000  Level Kansas City Center
Thu 04:53:00 PM 39.8220 -91.5426 267° West  Level FlightAware Approximate
Thu 04:53:12 PM 39.8219 -91.6442 265° West 423 487 36,000  Level Kansas City Center
Thu 04:54:00 PM 39.8136 -91.6878 260° West  Level FlightAware Approximate
Thu 04:54:14 PM 39.8089 -91.7969 264° West 426 490 36,000  Level Kansas City Center
Thu 04:55:16 PM 39.7986 -91.9456 265° West 420 483 36,000  Level Kansas City Center
Thu 04:56:18 PM 39.7864 -92.0906 264° West 409 471 36,000  Level Kansas City Center
Thu 04:57:20 PM 39.7725 -92.2653 264° West 407 468 36,000 -677 Level Kansas City Center
Thu 04:58:22 PM 39.7608 -92.4114 264° West 407 468 34,600 -1,452 Descending Kansas City Center
Thu 04:59:24 PM 39.7486 -92.5567 264° West 406 467 33,000 -1,500 Descending Kansas City Center
Thu 05:00:26 PM 39.7353 -92.7072 263° West 411 473 31,500 -1,597 Descending Kansas City Center
Thu 05:01:28 PM 39.7231 -92.8544 264° West 411 473 29,700 -1,872 Descending Kansas City Center
Thu 05:02:31 PM 39.7097 -93.0000 263° West 411 473 27,600 -2,177 Descending Kansas City Center
Thu 05:03:32 PM 39.6961 -93.1711 264° West 399 459 25,200 -2,146 Descending Kansas City Center
Thu 05:04:34 PM 39.6822 -93.3067 262° West 386 444 23,200 -1,968 Descending Kansas City Center
Thu 05:05:37 PM 39.6706 -93.4406 264° West 379 436 21,100 -1,968 Descending Kansas City Center
Thu 05:06:39 PM 39.6594 -93.5703 264° West 370 426 19,100 -1,742 Descending Kansas City Center
Thu 05:07:41 PM 39.6478 -93.6928 263° West 348 400 17,500 -1,839 Descending Kansas City Center
Thu 05:08:43 PM 39.6336 -93.8244 262° West 342 394 15,300 -2,177 Descending Kansas City Center
Thu 05:09:45 PM 39.5958 -93.9450 248° West 324 373 13,000 -1,597 Descending Kansas City Center
Thu 05:10:47 PM 39.5486 -94.0369 236° Southwest 320 368 12,000 -484 Descending Kansas City Center
Thu 05:11:49 PM 39.4953 -94.1439 237° Southwest 317 365 12,000  Level Kansas City Center
Thu 05:12:51 PM 39.4494 -94.2361 237° Southwest 317 365 12,000  Level Kansas City Center
Thu 05:13:53 PM 39.3950 -94.3406 236° Southwest 313 360 12,000  Level Kansas City Center
Thu 05:14:55 PM 39.3536 -94.4219 237° Southwest 275 316 12,000 -532 Level Kansas City Center
Thu 05:15:57 PM 39.3150 -94.4972 236° Southwest 225 259 10,900 -1,210 Descending Kansas City Center
Thu 05:16:59 PM 39.2842 -94.5572 236° Southwest 210 242 9,500 -919 Descending Kansas City Center
Thu 05:18:01 PM 39.2386 -94.6058 220° Southwest 231 266 9,000 -435 Descending Kansas City Center
Thu 05:19:03 PM 39.1697 -94.6289 195° South 228 262 8,600 -871 Descending Kansas City Center
Thu 05:20:05 PM 39.1075 -94.6489 194° South 238 274 7,200 -774 Descending Kansas City Center
Thu 05:21:07 PM 39.0350 -94.6719 194° South 239 275 7,000 -484 Descending Kansas City Center
Thu 05:22:09 PM 38.9969 -94.7206 225° Southwest 231 266 6,200 -774 Descending Kansas City Center
Thu 05:23:11 PM 39.0075 -94.7900 281° West 195 224 5,400 -871 Descending Kansas City Center
Thu 05:24:13 PM 39.0497 -94.7781 12° North 163 188 4,400 -968 Descending Kansas City Center
Thu 05:25:15 PM 39.0939 -94.7644 13° North 148 170 3,400 -677 Descending Kansas City Center
Thu 05:26:17 PM 39.1322 -94.7542 12° North 147 169 3,000 -194 Descending Kansas City Center
Thu 05:27:19 PM 39.1750 -94.7411 13° North 143 165 3,000  Level Kansas City Center

Login

Don't have an account? Register now (free) for customized features, flight alerts, and more!